sensor_id;sensor_type;location;lat;lon;timestamp;temperature;humidity
19781;DHT22;10050;55.492;13.506;2024-03-02T00:00:19;6.10;99.90
19781;DHT22;10050;55.492;13.506;2024-03-02T00:02:47;6.10;99.90
19781;DHT22;10050;55.492;13.506;2024-03-02T00:05:15;6.10;99.90
19781;DHT22;10050;55.492;13.506;2024-03-02T00:07:42;6.10;99.90
19781;DHT22;10050;55.492;13.506;2024-03-02T00:10:09;6.10;99.90
19781;DHT22;10050;55.492;13.506;2024-03-02T00:12:39;6.10;99.90
19781;DHT22;10050;55.492;13.506;2024-03-02T00:15:18;6.10;99.90
19781;DHT22;10050;55.492;13.506;2024-03-02T00:17:55;6.10;99.90
19781;DHT22;10050;55.492;13.506;2024-03-02T00:20:24;6.10;99.90
19781;DHT22;10050;55.492;13.506;2024-03-02T00:23:03;6.10;99.90
19781;DHT22;10050;55.492;13.506;2024-03-02T00:25:56;6.10;99.90
19781;DHT22;10050;55.492;13.506;2024-03-02T00:28:24;6.10;99.90
19781;DHT22;10050;55.492;13.506;2024-03-02T00:30:57;6.10;99.90
19781;DHT22;10050;55.492;13.506;2024-03-02T00:33:23;6.10;99.90
19781;DHT22;10050;55.492;13.506;2024-03-02T00:35:50;6.00;99.90
19781;DHT22;10050;55.492;13.506;2024-03-02T00:38:15;6.00;99.90
19781;DHT22;10050;55.492;13.506;2024-03-02T00:40:45;6.00;99.90
19781;DHT22;10050;55.492;13.506;2024-03-02T00:46:08;6.00;99.90
19781;DHT22;10050;55.492;13.506;2024-03-02T00:48:34;6.00;99.90
19781;DHT22;10050;55.492;13.506;2024-03-02T00:51:03;6.00;99.90
19781;DHT22;10050;55.492;13.506;2024-03-02T00:53:32;5.90;99.90
19781;DHT22;10050;55.492;13.506;2024-03-02T00:55:59;6.00;99.90
19781;DHT22;10050;55.492;13.506;2024-03-02T00:58:25;6.00;99.90
19781;DHT22;10050;55.492;13.506;2024-03-02T01:00:50;6.00;99.90
19781;DHT22;10050;55.492;13.506;2024-03-02T01:03:16;6.00;99.90
19781;DHT22;10050;55.492;13.506;2024-03-02T01:05:42;5.90;99.90
19781;DHT22;10050;55.492;13.506;2024-03-02T01:08:09;5.90;99.90
19781;DHT22;10050;55.492;13.506;2024-03-02T01:10:35;6.00;99.90
19781;DHT22;10050;55.492;13.506;2024-03-02T01:13:01;5.90;99.90
19781;DHT22;10050;55.492;13.506;2024-03-02T01:15:26;6.00;99.90
19781;DHT22;10050;55.492;13.506;2024-03-02T01:17:52;6.00;99.90
19781;DHT22;10050;55.492;13.506;2024-03-02T01:20:18;6.00;99.90
19781;DHT22;10050;55.492;13.506;2024-03-02T01:22:43;6.00;99.90
19781;DHT22;10050;55.492;13.506;2024-03-02T01:25:09;6.10;99.90
19781;DHT22;10050;55.492;13.506;2024-03-02T01:27:35;6.10;99.90
19781;DHT22;10050;55.492;13.506;2024-03-02T01:30:01;6.10;99.90
19781;DHT22;10050;55.492;13.506;2024-03-02T01:32:26;6.10;99.90
19781;DHT22;10050;55.492;13.506;2024-03-02T01:34:52;6.20;99.90
19781;DHT22;10050;55.492;13.506;2024-03-02T01:37:18;6.20;99.90
19781;DHT22;10050;55.492;13.506;2024-03-02T01:39:44;6.20;99.90
19781;DHT22;10050;55.492;13.506;2024-03-02T01:42:09;6.30;99.90
19781;DHT22;10050;55.492;13.506;2024-03-02T01:44:36;6.30;99.90
19781;DHT22;10050;55.492;13.506;2024-03-02T01:47:02;6.30;99.90
19781;DHT22;10050;55.492;13.506;2024-03-02T01:49:27;6.30;99.90
19781;DHT22;10050;55.492;13.506;2024-03-02T01:51:53;6.30;99.90
19781;DHT22;10050;55.492;13.506;2024-03-02T01:54:19;6.30;99.90
19781;DHT22;10050;55.492;13.506;2024-03-02T01:56:44;6.40;99.90
19781;DHT22;10050;55.492;13.506;2024-03-02T01:59:10;6.40;99.90
19781;DHT22;10050;55.492;13.506;2024-03-02T02:01:38;6.40;99.90
19781;DHT22;10050;55.492;13.506;2024-03-02T02:04:04;6.50;99.90
19781;DHT22;10050;55.492;13.506;2024-03-02T02:06:32;6.40;99.90
19781;DHT22;10050;55.492;13.506;2024-03-02T02:08:57;6.50;99.90
19781;DHT22;10050;55.492;13.506;2024-03-02T02:11:24;6.50;99.90
19781;DHT22;10050;55.492;13.506;2024-03-02T02:13:49;6.50;99.90
19781;DHT22;10050;55.492;13.506;2024-03-02T02:16:15;6.60;99.90
19781;DHT22;10050;55.492;13.506;2024-03-02T02:18:41;6.60;99.90
19781;DHT22;10050;55.492;13.506;2024-03-02T02:21:06;6.60;99.90
19781;DHT22;10050;55.492;13.506;2024-03-02T02:23:32;6.60;99.90
19781;DHT22;10050;55.492;13.506;2024-03-02T02:25:57;6.60;99.90
19781;DHT22;10050;55.492;13.506;2024-03-02T02:28:23;6.60;99.90
19781;DHT22;10050;55.492;13.506;2024-03-02T02:30:48;6.60;99.90
19781;DHT22;10050;55.492;13.506;2024-03-02T02:33:14;6.60;99.90
19781;DHT22;10050;55.492;13.506;2024-03-02T02:35:40;6.70;99.90
19781;DHT22;10050;55.492;13.506;2024-03-02T02:38:06;6.70;99.90
19781;DHT22;10050;55.492;13.506;2024-03-02T02:40:31;6.70;99.90
19781;DHT22;10050;55.492;13.506;2024-03-02T02:42:58;6.70;99.90
19781;DHT22;10050;55.492;13.506;2024-03-02T02:45:24;6.70;99.90
19781;DHT22;10050;55.492;13.506;2024-03-02T02:47:50;6.70;99.90
19781;DHT22;10050;55.492;13.506;2024-03-02T02:50:16;6.70;99.90
19781;DHT22;10050;55.492;13.506;2024-03-02T02:52:42;6.80;99.90
19781;DHT22;10050;55.492;13.506;2024-03-02T02:55:10;6.80;99.90
19781;DHT22;10050;55.492;13.506;2024-03-02T02:57:37;6.80;99.90
19781;DHT22;10050;55.492;13.506;2024-03-02T03:00:09;6.80;99.90
19781;DHT22;10050;55.492;13.506;2024-03-02T03:02:38;6.80;99.90
19781;DHT22;10050;55.492;13.506;2024-03-02T03:05:05;6.80;99.90
19781;DHT22;10050;55.492;13.506;2024-03-02T03:07:32;6.80;99.90
19781;DHT22;10050;55.492;13.506;2024-03-02T03:09:58;6.90;99.90
19781;DHT22;10050;55.492;13.506;2024-03-02T03:12:24;6.90;99.90
19781;DHT22;10050;55.492;13.506;2024-03-02T03:14:49;6.90;99.90
19781;DHT22;10050;55.492;13.506;2024-03-02T03:17:15;6.90;99.90
19781;DHT22;10050;55.492;13.506;2024-03-02T03:19:40;7.00;99.90
19781;DHT22;10050;55.492;13.506;2024-03-02T03:22:06;7.00;99.90
19781;DHT22;10050;55.492;13.506;2024-03-02T03:24:32;7.00;99.90
19781;DHT22;10050;55.492;13.506;2024-03-02T03:26:58;7.00;99.90
19781;DHT22;10050;55.492;13.506;2024-03-02T03:29:23;7.00;99.90
19781;DHT22;10050;55.492;13.506;2024-03-02T03:31:49;7.00;99.90
19781;DHT22;10050;55.492;13.506;2024-03-02T03:34:15;7.00;99.90
19781;DHT22;10050;55.492;13.506;2024-03-02T03:36:42;7.10;99.90
19781;DHT22;10050;55.492;13.506;2024-03-02T03:39:07;7.10;99.90
19781;DHT22;10050;55.492;13.506;2024-03-02T03:41:33;7.10;99.90
19781;DHT22;10050;55.492;13.506;2024-03-02T03:43:58;7.10;99.90
19781;DHT22;10050;55.492;13.506;2024-03-02T03:46:24;7.10;99.90
19781;DHT22;10050;55.492;13.506;2024-03-02T03:48:50;7.20;99.90
19781;DHT22;10050;55.492;13.506;2024-03-02T03:51:16;7.20;99.90
19781;DHT22;10050;55.492;13.506;2024-03-02T03:53:41;7.20;99.90
19781;DHT22;10050;55.492;13.506;2024-03-02T03:56:07;7.20;99.90
19781;DHT22;10050;55.492;13.506;2024-03-02T03:58:33;7.20;99.90
19781;DHT22;10050;55.492;13.506;2024-03-02T04:00:58;7.20;99.90
19781;DHT22;10050;55.492;13.506;2024-03-02T04:03:26;7.20;99.90
19781;DHT22;10050;55.492;13.506;2024-03-02T04:05:52;7.20;99.90
19781;DHT22;10050;55.492;13.506;2024-03-02T04:08:18;7.20;99.90
19781;DHT22;10050;55.492;13.506;2024-03-02T04:10:43;7.20;99.90
19781;DHT22;10050;55.492;13.506;2024-03-02T04:13:09;7.20;99.90
19781;DHT22;10050;55.492;13.506;2024-03-02T04:15:35;7.20;99.90
19781;DHT22;10050;55.492;13.506;2024-03-02T04:18:00;7.20;99.90
19781;DHT22;10050;55.492;13.506;2024-03-02T04:20:26;7.20;99.90
19781;DHT22;10050;55.492;13.506;2024-03-02T04:22:51;7.20;99.90
19781;DHT22;10050;55.492;13.506;2024-03-02T04:25:17;7.20;99.90
19781;DHT22;10050;55.492;13.506;2024-03-02T04:27:43;7.20;99.90
19781;DHT22;10050;55.492;13.506;2024-03-02T04:30:08;7.20;99.90
19781;DHT22;10050;55.492;13.506;2024-03-02T04:32:34;7.20;99.90
19781;DHT22;10050;55.492;13.506;2024-03-02T04:35:01;7.20;99.90
19781;DHT22;10050;55.492;13.506;2024-03-02T04:37:27;7.20;99.90
19781;DHT22;10050;55.492;13.506;2024-03-02T04:39:52;7.20;99.90
19781;DHT22;10050;55.492;13.506;2024-03-02T04:42:18;7.20;99.90
19781;DHT22;10050;55.492;13.506;2024-03-02T04:44:43;7.20;99.90
19781;DHT22;10050;55.492;13.506;2024-03-02T04:47:09;7.20;99.90
19781;DHT22;10050;55.492;13.506;2024-03-02T04:49:35;7.20;99.90
19781;DHT22;10050;55.492;13.506;2024-03-02T04:52:00;7.20;99.90
19781;DHT22;10050;55.492;13.506;2024-03-02T04:54:26;7.20;99.90
19781;DHT22;10050;55.492;13.506;2024-03-02T04:56:52;7.30;99.90
19781;DHT22;10050;55.492;13.506;2024-03-02T04:59:18;7.30;99.90
19781;DHT22;10050;55.492;13.506;2024-03-02T05:01:44;7.30;99.90
19781;DHT22;10050;55.492;13.506;2024-03-02T05:04:10;7.30;99.90
19781;DHT22;10050;55.492;13.506;2024-03-02T05:06:39;7.30;99.90
19781;DHT22;10050;55.492;13.506;2024-03-02T05:09:08;7.30;99.90
19781;DHT22;10050;55.492;13.506;2024-03-02T05:11:34;7.30;99.90
19781;DHT22;10050;55.492;13.506;2024-03-02T05:14:05;7.30;99.90
19781;DHT22;10050;55.492;13.506;2024-03-02T05:16:37;7.40;99.90
19781;DHT22;10050;55.492;13.506;2024-03-02T05:19:07;7.40;99.90
19781;DHT22;10050;55.492;13.506;2024-03-02T05:21:33;7.40;99.90
19781;DHT22;10050;55.492;13.506;2024-03-02T05:23:59;7.30;99.90
19781;DHT22;10050;55.492;13.506;2024-03-02T05:26:25;7.40;99.90
19781;DHT22;10050;55.492;13.506;2024-03-02T05:28:51;7.40;99.90
19781;DHT22;10050;55.492;13.506;2024-03-02T05:31:16;7.40;99.90
19781;DHT22;10050;55.492;13.506;2024-03-02T05:33:43;7.30;99.90
19781;DHT22;10050;55.492;13.506;2024-03-02T05:36:09;7.30;99.90
19781;DHT22;10050;55.492;13.506;2024-03-02T05:38:35;7.30;99.90
19781;DHT22;10050;55.492;13.506;2024-03-02T05:41:01;7.30;99.90
19781;DHT22;10050;55.492;13.506;2024-03-02T05:43:26;7.30;99.90
19781;DHT22;10050;55.492;13.506;2024-03-02T05:45:52;7.30;99.90
19781;DHT22;10050;55.492;13.506;2024-03-02T05:48:18;7.30;99.90
19781;DHT22;10050;55.492;13.506;2024-03-02T05:50:43;7.30;99.90
19781;DHT22;10050;55.492;13.506;2024-03-02T05:53:09;7.30;99.90
19781;DHT22;10050;55.492;13.506;2024-03-02T05:55:35;7.30;99.90
19781;DHT22;10050;55.492;13.506;2024-03-02T05:58:00;7.30;99.90
19781;DHT22;10050;55.492;13.506;2024-03-02T06:00:32;7.30;99.90
19781;DHT22;10050;55.492;13.506;2024-03-02T06:02:58;7.30;99.90
19781;DHT22;10050;55.492;13.506;2024-03-02T06:05:26;7.30;99.90
19781;DHT22;10050;55.492;13.506;2024-03-02T06:07:52;7.30;99.90
19781;DHT22;10050;55.492;13.506;2024-03-02T06:10:18;7.30;99.90
19781;DHT22;10050;55.492;13.506;2024-03-02T06:12:44;7.40;99.90
19781;DHT22;10050;55.492;13.506;2024-03-02T06:15:10;7.40;99.90
19781;DHT22;10050;55.492;13.506;2024-03-02T06:17:36;7.40;99.90
19781;DHT22;10050;55.492;13.506;2024-03-02T06:20:02;7.40;99.90
19781;DHT22;10050;55.492;13.506;2024-03-02T06:22:31;7.40;99.90
19781;DHT22;10050;55.492;13.506;2024-03-02T06:25:00;7.40;99.90
19781;DHT22;10050;55.492;13.506;2024-03-02T06:27:26;7.40;99.90
19781;DHT22;10050;55.492;13.506;2024-03-02T06:29:51;7.40;99.90
19781;DHT22;10050;55.492;13.506;2024-03-02T06:32:17;7.40;99.90
19781;DHT22;10050;55.492;13.506;2024-03-02T06:34:43;7.40;99.90
19781;DHT22;10050;55.492;13.506;2024-03-02T06:37:09;7.40;99.90
19781;DHT22;10050;55.492;13.506;2024-03-02T06:39:34;7.50;99.90
19781;DHT22;10050;55.492;13.506;2024-03-02T06:42:01;7.40;99.90
19781;DHT22;10050;55.492;13.506;2024-03-02T06:44:30;7.50;99.90
19781;DHT22;10050;55.492;13.506;2024-03-02T06:46:56;7.50;99.90
19781;DHT22;10050;55.492;13.506;2024-03-02T06:49:23;7.50;99.90
19781;DHT22;10050;55.492;13.506;2024-03-02T06:51:51;7.50;99.90
19781;DHT22;10050;55.492;13.506;2024-03-02T06:54:18;7.50;99.90
19781;DHT22;10050;55.492;13.506;2024-03-02T06:56:45;7.50;99.90
19781;DHT22;10050;55.492;13.506;2024-03-02T06:59:11;7.50;99.90
19781;DHT22;10050;55.492;13.506;2024-03-02T07:01:43;7.50;99.90
19781;DHT22;10050;55.492;13.506;2024-03-02T07:04:09;7.60;99.90
19781;DHT22;10050;55.492;13.506;2024-03-02T07:06:35;7.60;99.90
19781;DHT22;10050;55.492;13.506;2024-03-02T07:09:01;7.60;99.90
19781;DHT22;10050;55.492;13.506;2024-03-02T07:11:27;7.60;99.90
19781;DHT22;10050;55.492;13.506;2024-03-02T07:13:52;7.60;99.90
19781;DHT22;10050;55.492;13.506;2024-03-02T07:16:18;7.60;99.90
19781;DHT22;10050;55.492;13.506;2024-03-02T07:18:55;7.60;99.90
19781;DHT22;10050;55.492;13.506;2024-03-02T07:21:22;7.60;99.90
19781;DHT22;10050;55.492;13.506;2024-03-02T07:23:48;7.60;99.90
19781;DHT22;10050;55.492;13.506;2024-03-02T07:26:14;7.60;99.90
19781;DHT22;10050;55.492;13.506;2024-03-02T07:28:41;7.50;99.90
19781;DHT22;10050;55.492;13.506;2024-03-02T07:31:07;7.60;99.90
19781;DHT22;10050;55.492;13.506;2024-03-02T07:33:33;7.60;99.90
19781;DHT22;10050;55.492;13.506;2024-03-02T07:36:00;7.60;99.90
19781;DHT22;10050;55.492;13.506;2024-03-02T07:38:30;7.60;99.90
19781;DHT22;10050;55.492;13.506;2024-03-02T07:40:57;7.60;99.90
19781;DHT22;10050;55.492;13.506;2024-03-02T07:43:23;7.60;99.90
19781;DHT22;10050;55.492;13.506;2024-03-02T07:45:49;7.70;99.90
19781;DHT22;10050;55.492;13.506;2024-03-02T07:48:16;7.70;99.90
19781;DHT22;10050;55.492;13.506;2024-03-02T07:50:45;7.70;99.90
19781;DHT22;10050;55.492;13.506;2024-03-02T07:53:11;7.70;99.90
19781;DHT22;10050;55.492;13.506;2024-03-02T07:55:37;7.70;99.90
19781;DHT22;10050;55.492;13.506;2024-03-02T07:58:03;7.60;99.90
19781;DHT22;10050;55.492;13.506;2024-03-02T08:00:28;7.60;99.90
19781;DHT22;10050;55.492;13.506;2024-03-02T08:02:55;7.60;99.90
19781;DHT22;10050;55.492;13.506;2024-03-02T08:05:21;7.60;99.90
19781;DHT22;10050;55.492;13.506;2024-03-02T08:07:47;7.70;99.90
19781;DHT22;10050;55.492;13.506;2024-03-02T08:10:13;7.70;99.90
19781;DHT22;10050;55.492;13.506;2024-03-02T08:12:39;7.70;99.90
19781;DHT22;10050;55.492;13.506;2024-03-02T08:15:05;7.60;99.90
19781;DHT22;10050;55.492;13.506;2024-03-02T08:17:31;7.60;99.90
19781;DHT22;10050;55.492;13.506;2024-03-02T08:19:57;7.60;99.90
19781;DHT22;10050;55.492;13.506;2024-03-02T08:22:23;7.60;99.90
19781;DHT22;10050;55.492;13.506;2024-03-02T08:24:51;7.60;99.90
19781;DHT22;10050;55.492;13.506;2024-03-02T08:27:16;7.60;99.90
19781;DHT22;10050;55.492;13.506;2024-03-02T08:29:42;7.70;99.90
19781;DHT22;10050;55.492;13.506;2024-03-02T08:32:09;7.60;99.90
19781;DHT22;10050;55.492;13.506;2024-03-02T08:34:34;7.70;99.90
19781;DHT22;10050;55.492;13.506;2024-03-02T08:37:01;7.70;99.90
19781;DHT22;10050;55.492;13.506;2024-03-02T08:39:27;7.80;99.90
19781;DHT22;10050;55.492;13.506;2024-03-02T08:41:53;7.80;99.90
19781;DHT22;10050;55.492;13.506;2024-03-02T08:44:19;7.80;99.90
19781;DHT22;10050;55.492;13.506;2024-03-02T08:46:45;7.90;99.90
19781;DHT22;10050;55.492;13.506;2024-03-02T08:49:11;7.80;99.90
19781;DHT22;10050;55.492;13.506;2024-03-02T08:51:37;7.80;99.90
19781;DHT22;10050;55.492;13.506;2024-03-02T08:54:03;7.80;99.90
19781;DHT22;10050;55.492;13.506;2024-03-02T08:56:30;7.80;99.90
19781;DHT22;10050;55.492;13.506;2024-03-02T08:58:56;7.80;99.90
19781;DHT22;10050;55.492;13.506;2024-03-02T09:01:22;7.80;99.90
19781;DHT22;10050;55.492;13.506;2024-03-02T09:03:48;7.80;99.90
19781;DHT22;10050;55.492;13.506;2024-03-02T09:06:14;7.80;99.90
19781;DHT22;10050;55.492;13.506;2024-03-02T09:08:42;7.80;99.90
19781;DHT22;10050;55.492;13.506;2024-03-02T09:11:10;7.80;99.90
19781;DHT22;10050;55.492;13.506;2024-03-02T09:13:36;7.70;99.90
19781;DHT22;10050;55.492;13.506;2024-03-02T09:16:08;7.70;99.90
19781;DHT22;10050;55.492;13.506;2024-03-02T09:18:36;7.70;99.90
19781;DHT22;10050;55.492;13.506;2024-03-02T09:21:05;7.70;99.90
19781;DHT22;10050;55.492;13.506;2024-03-02T09:23:30;7.70;99.90
19781;DHT22;10050;55.492;13.506;2024-03-02T09:25:56;7.70;99.90
19781;DHT22;10050;55.492;13.506;2024-03-02T09:28:21;7.60;99.90
19781;DHT22;10050;55.492;13.506;2024-03-02T09:30:47;7.60;99.90
19781;DHT22;10050;55.492;13.506;2024-03-02T09:33:12;7.60;99.90
19781;DHT22;10050;55.492;13.506;2024-03-02T09:35:38;7.60;99.90
19781;DHT22;10050;55.492;13.506;2024-03-02T09:38:04;7.60;99.90
19781;DHT22;10050;55.492;13.506;2024-03-02T09:40:30;7.50;99.90
19781;DHT22;10050;55.492;13.506;2024-03-02T09:42:56;7.50;99.90
19781;DHT22;10050;55.492;13.506;2024-03-02T09:45:24;7.50;99.90
19781;DHT22;10050;55.492;13.506;2024-03-02T09:47:50;7.50;99.90
19781;DHT22;10050;55.492;13.506;2024-03-02T09:50:15;7.50;99.90
19781;DHT22;10050;55.492;13.506;2024-03-02T09:52:48;7.40;99.90
19781;DHT22;10050;55.492;13.506;2024-03-02T09:55:15;7.40;99.90
19781;DHT22;10050;55.492;13.506;2024-03-02T09:57:41;7.30;99.90
19781;DHT22;10050;55.492;13.506;2024-03-02T10:00:08;7.30;99.90
19781;DHT22;10050;55.492;13.506;2024-03-02T10:02:34;7.30;99.90
19781;DHT22;10050;55.492;13.506;2024-03-02T10:04:59;7.30;99.90
19781;DHT22;10050;55.492;13.506;2024-03-02T10:07:25;7.30;99.90
19781;DHT22;10050;55.492;13.506;2024-03-02T10:09:50;7.30;99.90
19781;DHT22;10050;55.492;13.506;2024-03-02T10:12:18;7.40;99.90
19781;DHT22;10050;55.492;13.506;2024-03-02T10:14:44;7.30;99.90
19781;DHT22;10050;55.492;13.506;2024-03-02T10:17:14;7.40;99.90
19781;DHT22;10050;55.492;13.506;2024-03-02T10:19:41;7.40;99.90
19781;DHT22;10050;55.492;13.506;2024-03-02T10:22:10;7.40;99.90
19781;DHT22;10050;55.492;13.506;2024-03-02T10:24:44;7.40;99.90
19781;DHT22;10050;55.492;13.506;2024-03-02T10:27:15;7.40;99.90
19781;DHT22;10050;55.492;13.506;2024-03-02T10:29:42;7.40;99.90
19781;DHT22;10050;55.492;13.506;2024-03-02T10:32:11;7.40;99.90
19781;DHT22;10050;55.492;13.506;2024-03-02T10:34:39;7.40;99.90
19781;DHT22;10050;55.492;13.506;2024-03-02T10:37:06;7.40;99.90
19781;DHT22;10050;55.492;13.506;2024-03-02T10:39:34;7.40;99.90
19781;DHT22;10050;55.492;13.506;2024-03-02T10:42:02;7.40;99.90
19781;DHT22;10050;55.492;13.506;2024-03-02T10:44:29;7.40;99.90
19781;DHT22;10050;55.492;13.506;2024-03-02T10:46:56;7.40;99.90
19781;DHT22;10050;55.492;13.506;2024-03-02T10:49:23;7.40;99.90
19781;DHT22;10050;55.492;13.506;2024-03-02T10:51:50;7.30;99.90
19781;DHT22;10050;55.492;13.506;2024-03-02T10:54:16;7.30;99.90
19781;DHT22;10050;55.492;13.506;2024-03-02T10:56:44;7.30;99.90
19781;DHT22;10050;55.492;13.506;2024-03-02T11:01:58;7.20;99.90
19781;DHT22;10050;55.492;13.506;2024-03-02T11:04:26;7.20;99.90
19781;DHT22;10050;55.492;13.506;2024-03-02T11:06:54;7.20;99.90
19781;DHT22;10050;55.492;13.506;2024-03-02T11:09:27;7.20;99.90
19781;DHT22;10050;55.492;13.506;2024-03-02T11:12:09;7.20;99.90
19781;DHT22;10050;55.492;13.506;2024-03-02T11:14:40;7.20;99.90
19781;DHT22;10050;55.492;13.506;2024-03-02T11:17:09;7.20;99.90
19781;DHT22;10050;55.492;13.506;2024-03-02T11:19:38;7.20;99.90
19781;DHT22;10050;55.492;13.506;2024-03-02T11:22:05;7.20;99.90
19781;DHT22;10050;55.492;13.506;2024-03-02T11:24:31;7.20;99.90
19781;DHT22;10050;55.492;13.506;2024-03-02T11:27:05;7.10;99.90
19781;DHT22;10050;55.492;13.506;2024-03-02T11:32:05;7.20;99.90
19781;DHT22;10050;55.492;13.506;2024-03-02T11:34:34;7.20;99.90
19781;DHT22;10050;55.492;13.506;2024-03-02T11:37:04;7.20;99.90
19781;DHT22;10050;55.492;13.506;2024-03-02T11:39:30;7.20;99.90
19781;DHT22;10050;55.492;13.506;2024-03-02T11:41:57;7.20;99.90
19781;DHT22;10050;55.492;13.506;2024-03-02T11:44:25;7.20;99.90
19781;DHT22;10050;55.492;13.506;2024-03-02T11:47:01;7.30;99.90
19781;DHT22;10050;55.492;13.506;2024-03-02T11:49:37;7.30;99.90
19781;DHT22;10050;55.492;13.506;2024-03-02T11:52:05;7.30;99.90
19781;DHT22;10050;55.492;13.506;2024-03-02T11:54:36;7.40;99.90
19781;DHT22;10050;55.492;13.506;2024-03-02T11:57:03;7.40;99.90
19781;DHT22;10050;55.492;13.506;2024-03-02T11:59:32;7.40;99.90
19781;DHT22;10050;55.492;13.506;2024-03-02T12:01:58;7.40;99.90
19781;DHT22;10050;55.492;13.506;2024-03-02T12:04:25;7.50;99.90
19781;DHT22;10050;55.492;13.506;2024-03-02T12:07:01;7.50;99.90
19781;DHT22;10050;55.492;13.506;2024-03-02T12:09:30;7.50;99.90
19781;DHT22;10050;55.492;13.506;2024-03-02T12:12:09;7.50;99.90
19781;DHT22;10050;55.492;13.506;2024-03-02T12:14:41;7.50;99.90
19781;DHT22;10050;55.492;13.506;2024-03-02T12:17:14;7.50;99.90
19781;DHT22;10050;55.492;13.506;2024-03-02T12:19:40;7.40;99.90
19781;DHT22;10050;55.492;13.506;2024-03-02T12:22:06;7.50;99.90
19781;DHT22;10050;55.492;13.506;2024-03-02T12:24:31;7.50;99.90
19781;DHT22;10050;55.492;13.506;2024-03-02T12:26:58;7.50;99.90
19781;DHT22;10050;55.492;13.506;2024-03-02T12:29:24;7.50;99.90
19781;DHT22;10050;55.492;13.506;2024-03-02T12:31:50;7.40;99.90
19781;DHT22;10050;55.492;13.506;2024-03-02T12:34:18;7.40;99.90
19781;DHT22;10050;55.492;13.506;2024-03-02T12:36:47;7.40;99.90
19781;DHT22;10050;55.492;13.506;2024-03-02T12:39:19;7.40;99.90
19781;DHT22;10050;55.492;13.506;2024-03-02T12:41:46;7.40;99.90
19781;DHT22;10050;55.492;13.506;2024-03-02T12:44:12;7.40;99.90
19781;DHT22;10050;55.492;13.506;2024-03-02T12:46:38;7.30;99.90
19781;DHT22;10050;55.492;13.506;2024-03-02T12:49:11;7.30;99.90
19781;DHT22;10050;55.492;13.506;2024-03-02T12:51:39;7.20;99.90
19781;DHT22;10050;55.492;13.506;2024-03-02T12:54:07;7.20;99.90
19781;DHT22;10050;55.492;13.506;2024-03-02T12:56:33;7.20;99.90
19781;DHT22;10050;55.492;13.506;2024-03-02T12:59:01;7.20;99.90
19781;DHT22;10050;55.492;13.506;2024-03-02T13:01:27;7.20;99.90
19781;DHT22;10050;55.492;13.506;2024-03-02T13:03:53;7.10;99.90
19781;DHT22;10050;55.492;13.506;2024-03-02T13:06:24;7.10;99.90
19781;DHT22;10050;55.492;13.506;2024-03-02T13:08:53;7.10;99.90
19781;DHT22;10050;55.492;13.506;2024-03-02T13:11:20;7.10;99.90
19781;DHT22;10050;55.492;13.506;2024-03-02T13:13:46;7.10;99.90
19781;DHT22;10050;55.492;13.506;2024-03-02T13:16:12;7.10;99.90
19781;DHT22;10050;55.492;13.506;2024-03-02T13:18:41;7.10;99.90
19781;DHT22;10050;55.492;13.506;2024-03-02T13:21:08;7.10;99.90
19781;DHT22;10050;55.492;13.506;2024-03-02T13:23:36;7.10;99.90
19781;DHT22;10050;55.492;13.506;2024-03-02T13:26:02;7.10;99.90
19781;DHT22;10050;55.492;13.506;2024-03-02T13:28:27;7.10;99.90
19781;DHT22;10050;55.492;13.506;2024-03-02T13:30:53;7.10;99.90
19781;DHT22;10050;55.492;13.506;2024-03-02T13:33:19;7.10;99.90
19781;DHT22;10050;55.492;13.506;2024-03-02T13:35:49;7.10;99.90
19781;DHT22;10050;55.492;13.506;2024-03-02T13:38:19;7.10;99.90
19781;DHT22;10050;55.492;13.506;2024-03-02T13:40:44;7.10;99.90
19781;DHT22;10050;55.492;13.506;2024-03-02T13:43:11;7.10;99.90
19781;DHT22;10050;55.492;13.506;2024-03-02T13:45:37;7.10;99.90
19781;DHT22;10050;55.492;13.506;2024-03-02T13:48:03;7.00;99.90
19781;DHT22;10050;55.492;13.506;2024-03-02T13:50:29;7.00;99.90
19781;DHT22;10050;55.492;13.506;2024-03-02T13:52:55;7.00;99.90
19781;DHT22;10050;55.492;13.506;2024-03-02T13:55:22;6.90;99.90
19781;DHT22;10050;55.492;13.506;2024-03-02T13:57:47;6.90;99.90
19781;DHT22;10050;55.492;13.506;2024-03-02T14:00:16;7.00;99.90
19781;DHT22;10050;55.492;13.506;2024-03-02T14:02:43;7.00;99.90
19781;DHT22;10050;55.492;13.506;2024-03-02T14:05:08;7.00;99.90
19781;DHT22;10050;55.492;13.506;2024-03-02T14:07:43;7.10;99.90
19781;DHT22;10050;55.492;13.506;2024-03-02T14:10:09;7.10;99.90
19781;DHT22;10050;55.492;13.506;2024-03-02T14:12:36;7.10;99.90
19781;DHT22;10050;55.492;13.506;2024-03-02T14:15:02;7.10;99.90
19781;DHT22;10050;55.492;13.506;2024-03-02T14:17:28;7.20;99.90
19781;DHT22;10050;55.492;13.506;2024-03-02T14:20:00;7.20;99.90
19781;DHT22;10050;55.492;13.506;2024-03-02T14:22:25;7.20;99.90
19781;DHT22;10050;55.492;13.506;2024-03-02T14:24:51;7.20;99.90
19781;DHT22;10050;55.492;13.506;2024-03-02T14:27:17;7.20;99.90
19781;DHT22;10050;55.492;13.506;2024-03-02T14:29:43;7.30;99.90
19781;DHT22;10050;55.492;13.506;2024-03-02T14:32:09;7.30;99.90
19781;DHT22;10050;55.492;13.506;2024-03-02T14:34:35;7.30;99.90
19781;DHT22;10050;55.492;13.506;2024-03-02T14:37:00;7.30;99.90
19781;DHT22;10050;55.492;13.506;2024-03-02T14:39:26;7.30;99.90
19781;DHT22;10050;55.492;13.506;2024-03-02T14:41:52;7.30;99.90
19781;DHT22;10050;55.492;13.506;2024-03-02T14:44:18;7.40;99.90
19781;DHT22;10050;55.492;13.506;2024-03-02T14:46:46;7.40;99.90
19781;DHT22;10050;55.492;13.506;2024-03-02T14:49:13;7.40;99.90
19781;DHT22;10050;55.492;13.506;2024-03-02T14:51:39;7.50;99.90
19781;DHT22;10050;55.492;13.506;2024-03-02T14:54:04;7.50;99.90
19781;DHT22;10050;55.492;13.506;2024-03-02T14:56:30;7.50;99.90
19781;DHT22;10050;55.492;13.506;2024-03-02T14:58:56;7.50;99.90
19781;DHT22;10050;55.492;13.506;2024-03-02T15:01:21;7.50;99.90
19781;DHT22;10050;55.492;13.506;2024-03-02T15:03:49;7.50;99.90
19781;DHT22;10050;55.492;13.506;2024-03-02T15:06:15;7.50;99.90
19781;DHT22;10050;55.492;13.506;2024-03-02T15:08:41;7.50;99.90
19781;DHT22;10050;55.492;13.506;2024-03-02T15:11:08;7.50;99.90
19781;DHT22;10050;55.492;13.506;2024-03-02T15:13:33;7.50;99.90
19781;DHT22;10050;55.492;13.506;2024-03-02T15:15:59;7.50;99.90
19781;DHT22;10050;55.492;13.506;2024-03-02T15:18:25;7.40;99.90
19781;DHT22;10050;55.492;13.506;2024-03-02T15:20:51;7.40;99.90
19781;DHT22;10050;55.492;13.506;2024-03-02T15:23:16;7.40;99.90
19781;DHT22;10050;55.492;13.506;2024-03-02T15:25:42;7.40;99.90
19781;DHT22;10050;55.492;13.506;2024-03-02T15:28:08;7.40;99.90
19781;DHT22;10050;55.492;13.506;2024-03-02T15:30:33;7.40;99.90
19781;DHT22;10050;55.492;13.506;2024-03-02T15:32:59;7.40;99.90
19781;DHT22;10050;55.492;13.506;2024-03-02T15:35:24;7.40;99.90